KPSO

Stevens Field Airport

Pagosa Springs, Colorado, USA
METAR KPSO 180015Z AUTO 14004KT 10SM CLR 10/M01 A3038 RMK AO2 T01001015
Observed Flight Rules
Oct-18 @ 00:15 UTC (32 minutes ago) Visual Flight Rules
Wind Visibility Clouds
140° at 4 knots 10 miles
  • Clear skies
Temperatures Readings
Current 10°C / 50°F
Dewpoint -2°C / 28°F
Humidity 43%
Altimeter 30.38" Hg
Pressure 1029 hPa
Elevation 2334
METAR KPSO 180015Z AUTO 14004KT 10SM CLR 10/M01 A3038 RMK AO2 T01001015
Observed Flight Rules
Oct-18 @ 00:15 UTC
(32 minutes ago)
VFR
Wind Visibility
140° at 4 knots 10 miles
Clouds
  • Clear skies
Temperature Dewpoint
10°C / 50°F -2°C / 28°F
Humidity Altimeter Pressure
43% 30.38" Hg 1029 hPa